Time;durP1;ratioP1;P1;durP2;ratioP2;P2;SDS_P1;SDS_P2;PMS_P1;PMS_P2;Temp;Humidity;BMP_temperature;BMP_pressure;BME280_temperature;BME280_humidity;BME280_pressure;Samples;Min_cycle;Max_cycle;Signal;HPM_P1;HPM_P2
2021/09/05 00:01:26;;;;;;;8.38;6.07;;;15.70;99.90;;;;;;4981354;28;20474;-84
2021/09/05 00:04:01;;;;;;;9.23;6.32;;;15.70;99.90;;;;;;5012702;28;20064;-83
2021/09/05 00:06:28;;;;;;;9.20;6.00;;;15.70;99.90;;;;;;5015251;28;20025;-83
2021/09/05 00:08:55;;;;;;;11.82;6.30;;;15.70;99.90;;;;;;5013688;28;20102;-83
2021/09/05 00:11:25;;;;;;;11.60;7.07;;;15.60;99.90;;;;;;5013829;28;20038;-83
2021/09/05 00:13:53;;;;;;;10.02;6.38;;;15.60;99.90;;;;;;5007372;28;20034;-82
2021/09/05 00:16:19;;;;;;;10.90;6.30;;;15.60;99.90;;;;;;5014902;28;20106;-82
2021/09/05 00:18:49;;;;;;;11.18;6.72;;;15.60;99.90;;;;;;5014687;28;20543;-84
2021/09/05 00:21:38;;;;;;;9.77;6.30;;;15.60;99.90;;;;;;4997097;28;20040;-83
2021/09/05 00:24:05;;;;;;;9.30;6.53;;;15.50;99.90;;;;;;5013515;28;20390;-83
2021/09/05 00:26:35;;;;;;;8.68;6.22;;;15.50;99.90;;;;;;5014805;28;20018;-83
2021/09/05 00:29:01;;;;;;;9.02;6.57;;;15.50;99.90;;;;;;4997117;28;20030;-84
2021/09/05 00:31:32;;;;;;;12.25;7.40;;;15.40;99.90;;;;;;4996888;28;20041;-84
2021/09/05 00:34:02;;;;;;;10.57;6.90;;;15.40;99.90;;;;;;5013246;28;20477;-84
2021/09/05 00:36:30;;;;;;;10.70;6.47;;;15.40;99.90;;;;;;4981161;28;20045;-83
2021/09/05 00:38:57;;;;;;;9.32;6.13;;;15.40;99.90;;;;;;4997177;28;20040;-83
2021/09/05 00:41:25;;;;;;;10.77;6.90;;;15.30;99.90;;;;;;5013385;28;20021;-84
2021/09/05 00:44:11;;;;;;;9.02;6.60;;;15.30;99.90;;;;;;5013226;28;20097;-84
2021/09/05 00:46:39;;;;;;;9.57;5.80;;;15.30;99.90;;;;;;5013258;28;20355;-83
2021/09/05 00:49:06;;;;;;;12.27;7.05;;;15.30;99.90;;;;;;5012922;28;20025;-84
2021/09/05 00:51:37;;;;;;;10.85;6.35;;;15.20;99.90;;;;;;5014271;28;20367;-83
2021/09/05 00:54:06;;;;;;;9.90;6.88;;;15.30;99.90;;;;;;5013130;28;20077;-83
2021/09/05 00:56:34;;;;;;;11.23;6.57;;;15.30;99.90;;;;;;5012988;28;20064;-84
2021/09/05 00:59:12;;;;;;;10.57;6.13;;;15.20;99.90;;;;;;5012871;28;20113;-84
2021/09/05 01:01:39;;;;;;;10.30;6.82;;;15.20;99.90;;;;;;5012711;28;20464;-84
2021/09/05 01:04:06;;;;;;;9.93;6.70;;;15.20;99.90;;;;;;5013985;28;20077;-83
2021/09/05 01:06:40;;;;;;;9.15;6.25;;;15.10;99.90;;;;;;5012785;28;20450;-84
2021/09/05 01:09:08;;;;;;;11.23;6.47;;;15.10;99.90;;;;;;5012786;28;20014;-84
2021/09/05 01:11:35;;;;;;;9.13;6.20;;;15.10;99.90;;;;;;5012691;28;20121;-84
2021/09/05 01:14:06;;;;;;;12.40;6.72;;;15.10;99.90;;;;;;5013698;28;20089;-84
2021/09/05 01:16:35;;;;;;;10.25;6.13;;;15.00;99.90;;;;;;5004820;28;20398;-84
2021/09/05 01:19:24;;;;;;;10.07;6.40;;;15.00;99.90;;;;;;5014359;28;20049;-83
2021/09/05 01:21:53;;;;;;;9.25;5.68;;;15.00;99.90;;;;;;4994950;28;20041;-84
2021/09/05 01:24:21;;;;;;;9.18;6.13;;;14.90;99.90;;;;;;5012499;28;20022;-84
2021/09/05 01:26:50;;;;;;;11.45;6.75;;;14.90;99.90;;;;;;5012507;28;20034;-84
2021/09/05 01:29:17;;;;;;;11.20;6.78;;;14.90;99.90;;;;;;5012039;28;20478;-84
2021/09/05 01:31:55;;;;;;;10.82;6.18;;;14.90;99.90;;;;;;5013741;28;20022;-84
2021/09/05 01:34:24;;;;;;;9.10;6.18;;;14.90;99.90;;;;;;5012732;28;20026;-84
2021/09/05 01:36:54;;;;;;;9.43;6.22;;;14.80;99.90;;;;;;4996328;28;20386;-83
2021/09/05 01:39:23;;;;;;;9.75;6.20;;;14.80;99.90;;;;;;5012571;28;20061;-83
2021/09/05 01:41:50;;;;;;;9.85;6.20;;;14.80;99.90;;;;;;5012672;28;20087;-83
2021/09/05 01:44:22;;;;;;;10.48;6.10;;;14.80;99.90;;;;;;4996023;28;20037;-83
2021/09/05 01:46:49;;;;;;;10.95;5.93;;;14.80;99.90;;;;;;4996885;28;20022;-82
2021/09/05 01:49:16;;;;;;;9.98;6.25;;;14.70;99.90;;;;;;5000155;28;20033;-82
2021/09/05 01:51:43;;;;;;;8.68;6.05;;;14.70;99.90;;;;;;4999936;28;20402;-83
2021/09/05 01:54:09;;;;;;;10.30;6.28;;;14.70;99.90;;;;;;5017659;28;20064;-84
2021/09/05 01:56:36;;;;;;;8.55;5.95;;;14.70;99.90;;;;;;4999818;28;20069;-84
2021/09/05 01:59:03;;;;;;;10.05;6.40;;;14.60;99.90;;;;;;5017188;28;20029;-84
2021/09/05 02:01:30;;;;;;;9.93;6.13;;;14.60;99.90;;;;;;5015983;28;20480;-83
2021/09/05 02:03:57;;;;;;;9.88;6.10;;;14.60;99.90;;;;;;5015843;28;20498;-83
2021/09/05 02:06:23;;;;;;;8.60;6.00;;;14.60;99.90;;;;;;5015921;28;20037;-83
2021/09/05 02:08:50;;;;;;;10.60;6.32;;;14.60;99.90;;;;;;5017784;28;20037;-84
2021/09/05 02:11:19;;;;;;;8.25;5.55;;;14.50;99.90;;;;;;5014651;28;20022;-83
2021/09/05 02:14:04;;;;;;;10.13;5.95;;;14.50;99.90;;;;;;5016874;28;20070;-82
2021/09/05 02:16:30;;;;;;;9.57;5.95;;;14.50;99.90;;;;;;5016813;28;20089;-82
2021/09/05 02:18:56;;;;;;;13.27;7.47;;;14.50;99.90;;;;;;5015493;28;20030;-83
2021/09/05 02:21:23;;;;;;;10.10;6.40;;;14.50;99.90;;;;;;5016730;28;20114;-83
2021/09/05 02:23:49;;;;;;;9.88;6.20;;;14.50;99.90;;;;;;5015556;28;20034;-83
2021/09/05 02:26:15;;;;;;;11.25;6.82;;;14.40;99.90;;;;;;5015664;28;20102;-84
2021/09/05 02:28:41;;;;;;;10.15;6.80;;;14.40;99.90;;;;;;5015241;28;20029;-84
2021/09/05 02:31:12;;;;;;;10.35;6.65;;;14.40;99.90;;;;;;5016418;28;20537;-83
2021/09/05 02:33:39;;;;;;;8.40;6.03;;;14.40;99.90;;;;;;5017048;28;20501;-83
2021/09/05 02:36:06;;;;;;;10.05;6.50;;;14.40;99.90;;;;;;4982928;28;20088;-83
2021/09/05 02:38:34;;;;;;;11.02;6.38;;;14.40;99.90;;;;;;4982850;28;20022;-84
2021/09/05 02:40:59;;;;;;;11.50;7.68;;;14.40;99.90;;;;;;4998848;28;20084;-83
2021/09/05 02:43:30;;;;;;;8.95;6.00;;;14.30;99.90;;;;;;5015404;28;20022;-83
2021/09/05 02:45:57;;;;;;;10.65;6.63;;;14.30;99.90;;;;;;5015676;28;20387;-82
2021/09/05 02:48:24;;;;;;;8.63;6.05;;;14.30;99.90;;;;;;5015377;28;20025;-83
2021/09/05 02:50:51;;;;;;;9.80;5.68;;;14.30;99.90;;;;;;4999013;28;20030;-83
2021/09/05 02:53:17;;;;;;;8.65;6.00;;;14.30;99.90;;;;;;4998913;28;20038;-83
2021/09/05 02:55:45;;;;;;;11.10;6.43;;;14.30;99.90;;;;;;4998515;28;20044;-83
2021/09/05 02:58:23;;;;;;;10.40;5.90;;;14.20;99.90;;;;;;4998839;28;20530;-84
2021/09/05 03:00:51;;;;;;;8.45;5.50;;;14.30;99.90;;;;;;5016158;28;20021;-83
2021/09/05 03:03:18;;;;;;;8.48;5.55;;;14.20;99.90;;;;;;5014517;28;20077;-83
2021/09/05 03:05:47;;;;;;;8.43;5.47;;;14.20;99.90;;;;;;5015042;28;20030;-83
2021/09/05 03:08:15;;;;;;;10.32;5.90;;;14.10;99.90;;;;;;4982681;28;20475;-83
2021/09/05 03:10:44;;;;;;;8.88;5.70;;;14.10;99.90;;;;;;4998857;28;20030;-83
2021/09/05 03:13:16;;;;;;;11.20;6.97;;;14.10;99.90;;;;;;5015669;28;20030;-83
2021/09/05 03:15:43;;;;;;;9.00;5.85;;;14.10;99.90;;;;;;5014408;28;20390;-83
2021/09/05 03:18:14;;;;;;;9.93;6.47;;;14.10;99.90;;;;;;4998433;28;20026;-82
2021/09/05 03:20:41;;;;;;;9.50;5.97;;;14.00;99.90;;;;;;5014704;28;20034;-82
2021/09/05 03:23:08;;;;;;;9.48;5.78;;;14.00;99.90;;;;;;5013945;28;20038;-82
2021/09/05 03:25:35;;;;;;;8.50;5.57;;;14.00;99.90;;;;;;5014508;28;20581;-83
2021/09/05 03:28:03;;;;;;;10.65;6.05;;;14.00;99.90;;;;;;4999083;28;20029;-83
2021/09/05 03:30:29;;;;;;;9.48;5.93;;;13.90;99.90;;;;;;5019200;28;20378;-82
2021/09/05 03:32:55;;;;;;;9.40;5.68;;;13.90;99.90;;;;;;5014314;28;20475;-82
2021/09/05 03:35:21;;;;;;;11.65;6.63;;;13.90;99.90;;;;;;4998106;28;20052;-83
2021/09/05 03:37:49;;;;;;;9.13;5.70;;;13.90;99.90;;;;;;5013365;28;20128;-82
2021/09/05 03:40:16;;;;;;;8.40;5.68;;;13.90;99.90;;;;;;5015923;28;20109;-82
2021/09/05 03:42:42;;;;;;;8.23;5.13;;;13.80;99.90;;;;;;4998007;28;20394;-83
2021/09/05 03:45:14;;;;;;;9.40;6.00;;;13.80;99.90;;;;;;5014148;28;20053;-83
2021/09/05 03:47:41;;;;;;;10.25;6.30;;;13.80;99.90;;;;;;5014366;28;20474;-82
2021/09/05 03:50:08;;;;;;;10.85;6.57;;;13.70;99.90;;;;;;5014173;28;20052;-82
2021/09/05 03:52:34;;;;;;;9.45;6.15;;;13.70;99.90;;;;;;5014581;28;20022;-83
2021/09/05 03:55:01;;;;;;;8.15;5.70;;;13.70;99.90;;;;;;5014040;28;20034;-82
2021/09/05 03:57:28;;;;;;;9.98;5.78;;;13.70;99.90;;;;;;5013625;28;20026;-83
2021/09/05 03:59:55;;;;;;;9.27;6.18;;;13.60;99.90;;;;;;5013944;28;20061;-84
2021/09/05 04:02:22;;;;;;;8.75;5.82;;;13.60;99.90;;;;;;5013386;28;20478;-82
2021/09/05 04:04:55;;;;;;;8.90;5.22;;;13.60;99.90;;;;;;5014901;28;20050;-83
2021/09/05 04:07:22;;;;;;;8.98;5.53;;;13.50;99.90;;;;;;5013695;28;20034;-82
2021/09/05 04:12:32;;;;;;;9.95;6.03;;;13.50;99.90;;;;;;5014674;28;20393;-82
2021/09/05 04:15:04;;;;;;;7.45;4.93;;;13.40;99.90;;;;;;4997095;28;20101;-82
2021/09/05 04:17:30;;;;;;;8.60;5.43;;;13.40;99.90;;;;;;4997022;28;20065;-82
2021/09/05 04:19:56;;;;;;;9.07;6.05;;;13.30;99.90;;;;;;5013661;28;20450;-82
2021/09/05 04:22:23;;;;;;;10.88;6.13;;;13.30;99.90;;;;;;5014454;28;20026;-83
2021/09/05 04:24:53;;;;;;;10.52;6.10;;;13.30;99.90;;;;;;4997365;28;20077;-83
2021/09/05 04:27:23;;;;;;;10.60;6.18;;;13.20;99.90;;;;;;4997079;28;20466;-83
2021/09/05 04:29:49;;;;;;;10.55;6.25;;;13.20;99.90;;;;;;5013290;28;20080;-83
2021/09/05 04:32:17;;;;;;;9.82;6.20;;;13.20;99.90;;;;;;5013140;28;20033;-83
2021/09/05 04:34:44;;;;;;;8.45;5.53;;;13.10;99.90;;;;;;4997112;28;20038;-82
2021/09/05 04:37:12;;;;;;;9.38;5.80;;;13.10;99.90;;;;;;5013730;28;20033;-83
2021/09/05 04:39:40;;;;;;;11.30;6.07;;;13.10;99.90;;;;;;5013244;28;20060;-83
2021/09/05 04:42:15;;;;;;;10.27;5.63;;;13.10;99.90;;;;;;5012756;28;20482;-83
2021/09/05 04:44:42;;;;;;;8.55;5.78;;;13.00;99.90;;;;;;4997240;28;20053;-83
2021/09/05 04:47:10;;;;;;;9.68;5.82;;;13.00;99.90;;;;;;4980408;28;20038;-82
2021/09/05 04:49:36;;;;;;;10.10;6.28;;;13.00;99.90;;;;;;4996390;28;20125;-83
2021/09/05 04:52:03;;;;;;;10.20;6.07;;;13.00;99.90;;;;;;5012652;28;20041;-83
2021/09/05 04:54:31;;;;;;;9.30;5.80;;;13.00;99.90;;;;;;4995828;28;20041;-83
2021/09/05 04:56:57;;;;;;;9.25;5.90;;;13.00;99.90;;;;;;4996445;28;20037;-83
2021/09/05 04:59:24;;;;;;;7.40;5.22;;;12.90;99.90;;;;;;5012958;28;20502;-83
2021/09/05 05:01:52;;;;;;;8.88;5.50;;;12.90;99.90;;;;;;5012062;28;20042;-83
2021/09/05 05:04:19;;;;;;;9.05;6.00;;;12.90;99.90;;;;;;4996617;28;20065;-83
2021/09/05 05:06:45;;;;;;;10.57;5.65;;;12.90;99.90;;;;;;5012845;28;20037;-83
2021/09/05 05:09:15;;;;;;;9.90;6.40;;;12.90;99.90;;;;;;4980359;28;20033;-82
2021/09/05 05:11:43;;;;;;;9.93;5.63;;;12.90;99.90;;;;;;5012955;28;20088;-82
2021/09/05 05:14:11;;;;;;;10.68;6.20;;;12.90;99.90;;;;;;4996102;28;20462;-83
2021/09/05 05:16:41;;;;;;;9.00;6.18;;;12.90;99.90;;;;;;4996182;28;20026;-82
2021/09/05 05:19:11;;;;;;;9.60;6.45;;;12.90;99.90;;;;;;5012684;28;20084;-82
2021/09/05 05:21:41;;;;;;;10.55;6.20;;;12.90;99.90;;;;;;5021389;28;20417;-82
2021/09/05 05:24:09;;;;;;;9.90;6.00;;;12.90;99.90;;;;;;5012139;28;20117;-84
2021/09/05 05:26:36;;;;;;;10.85;6.07;;;12.90;99.90;;;;;;4995806;28;20087;-83
2021/09/05 05:29:03;;;;;;;9.73;6.32;;;12.90;99.90;;;;;;5013725;28;20030;-83
2021/09/05 05:31:32;;;;;;;8.77;6.20;;;12.90;99.90;;;;;;5012094;28;20030;-82
2021/09/05 05:34:01;;;;;;;9.85;6.30;;;12.90;99.90;;;;;;5012160;28;20034;-82
2021/09/05 05:36:29;;;;;;;8.70;6.07;;;12.90;99.90;;;;;;5011574;28;20041;-82
2021/09/05 05:38:57;;;;;;;9.57;6.25;;;12.90;99.90;;;;;;4979722;28;20068;-82
2021/09/05 05:41:24;;;;;;;12.43;7.38;;;12.90;99.90;;;;;;5012200;28;20034;-84
2021/09/05 05:43:57;;;;;;;9.23;6.00;;;12.90;99.90;;;;;;4979864;28;20045;-83
2021/09/05 05:46:27;;;;;;;12.55;6.93;;;12.90;99.90;;;;;;4996300;28;20033;-83
2021/09/05 05:48:58;;;;;;;12.27;7.28;;;12.90;99.90;;;;;;5012776;28;20037;-82
2021/09/05 05:51:24;;;;;;;11.07;6.97;;;13.00;99.90;;;;;;5022716;28;20025;-82
2021/09/05 05:53:51;;;;;;;10.65;6.78;;;13.00;99.90;;;;;;5032366;28;20108;-82
2021/09/05 05:56:20;;;;;;;11.07;7.13;;;13.00;99.90;;;;;;5016054;28;20042;-84
2021/09/05 05:58:50;;;;;;;10.38;7.10;;;13.10;99.90;;;;;;5016175;28;20044;-83
2021/09/05 06:01:16;;;;;;;12.00;7.15;;;13.10;99.90;;;;;;5032414;28;20492;-83
2021/09/05 06:03:44;;;;;;;10.30;6.15;;;13.10;99.90;;;;;;5031796;28;20111;-83
2021/09/05 06:06:13;;;;;;;11.35;6.80;;;13.20;99.90;;;;;;5013408;28;20088;-82
2021/09/05 06:08:41;;;;;;;11.23;7.22;;;13.20;99.90;;;;;;5030248;28;20112;-82
2021/09/05 06:11:09;;;;;;;10.35;5.85;;;13.30;99.90;;;;;;5032365;28;20091;-83
2021/09/05 06:13:37;;;;;;;10.40;5.93;;;13.30;99.90;;;;;;5032534;28;20037;-83
2021/09/05 06:16:09;;;;;;;11.95;6.78;;;13.40;99.90;;;;;;5028035;28;20025;-83
2021/09/05 06:18:41;;;;;;;11.07;6.70;;;13.50;99.90;;;;;;5022694;28;20060;-83
2021/09/05 06:21:07;;;;;;;10.90;7.22;;;13.50;99.90;;;;;;5009408;28;20048;-82
2021/09/05 06:23:34;;;;;;;10.40;6.95;;;13.60;99.90;;;;;;5014021;28;20124;-84
2021/09/05 06:26:05;;;;;;;10.98;7.05;;;13.60;99.90;;;;;;4997507;28;20401;-83
2021/09/05 06:28:43;;;;;;;10.43;6.47;;;13.60;99.90;;;;;;5029878;28;20453;-83
2021/09/05 06:31:11;;;;;;;9.30;5.50;;;13.70;99.90;;;;;;5029131;28;20485;-83
2021/09/05 06:33:44;;;;;;;9.10;6.55;;;13.70;99.90;;;;;;5029843;28;20054;-83
2021/09/05 06:36:13;;;;;;;9.93;6.00;;;13.80;99.90;;;;;;5017710;28;20054;-83
2021/09/05 06:38:42;;;;;;;10.45;5.97;;;13.90;99.90;;;;;;5016549;28;20033;-83
2021/09/05 06:41:17;;;;;;;9.00;5.70;;;13.90;99.90;;;;;;5033288;28;20030;-83
2021/09/05 06:43:48;;;;;;;9.45;6.18;;;14.00;99.90;;;;;;5007150;28;20528;-83
2021/09/05 06:46:14;;;;;;;9.55;6.40;;;14.00;99.90;;;;;;5019755;28;20068;-83
2021/09/05 06:48:45;;;;;;;12.90;7.32;;;14.00;99.90;;;;;;5026498;28;20493;-83
2021/09/05 06:51:13;;;;;;;10.80;7.10;;;14.10;99.90;;;;;;5033046;28;20116;-83
2021/09/05 06:53:43;;;;;;;10.60;6.13;;;14.20;99.90;;;;;;5022237;28;20037;-82
2021/09/05 06:56:11;;;;;;;11.07;6.60;;;14.30;99.90;;;;;;5038005;28;20037;-83
2021/09/05 06:58:38;;;;;;;9.70;6.65;;;14.30;99.90;;;;;;5027979;28;20434;-85
2021/09/05 07:01:13;;;;;;;11.55;6.57;;;14.40;99.90;;;;;;5034618;28;20037;-84
2021/09/05 07:03:41;;;;;;;10.70;6.20;;;14.40;99.90;;;;;;5037931;28;20088;-84
2021/09/05 07:06:08;;;;;;;10.13;6.82;;;14.50;99.90;;;;;;5036067;28;20054;-84
2021/09/05 07:08:43;;;;;;;10.20;5.60;;;14.60;99.90;;;;;;5029782;28;20018;-84
2021/09/05 07:11:11;;;;;;;10.95;6.30;;;14.70;99.90;;;;;;5015527;28;20228;-85
2021/09/05 07:13:42;;;;;;;11.82;6.47;;;14.70;99.90;;;;;;5024756;28;20044;-85
2021/09/05 07:16:08;;;;;;;10.95;6.22;;;14.80;99.90;;;;;;4982510;28;20115;-84
2021/09/05 07:18:45;;;;;;;11.50;6.43;;;14.90;99.90;;;;;;5014719;28;20041;-84
2021/09/05 07:21:17;;;;;;;8.95;5.90;;;15.00;99.90;;;;;;5015758;28;20057;-84
2021/09/05 07:23:43;;;;;;;10.80;6.45;;;15.10;99.90;;;;;;5013173;28;20048;-83
2021/09/05 07:26:10;;;;;;;8.65;5.70;;;15.10;99.90;;;;;;4997202;28;20119;-84
2021/09/05 07:28:38;;;;;;;9.50;5.80;;;15.20;99.90;;;;;;4996491;28;20341;-84
2021/09/05 07:31:07;;;;;;;9.73;5.63;;;15.20;99.90;;;;;;4996734;28;20033;-84
2021/09/05 07:33:34;;;;;;;8.55;4.60;;;15.30;99.90;;;;;;4993935;28;20433;-83
2021/09/05 07:36:00;;;;;;;9.75;5.50;;;15.30;99.90;;;;;;5033715;28;20042;-83
2021/09/05 07:38:28;;;;;;;8.50;5.75;;;15.40;99.90;;;;;;4998219;28;20251;-82
2021/09/05 07:40:59;;;;;;;11.00;5.63;;;15.50;99.90;;;;;;5012367;28;20061;-83
2021/09/05 07:43:32;;;;;;;9.38;5.63;;;15.60;99.90;;;;;;5012374;28;20029;-83
2021/09/05 07:46:04;;;;;;;8.82;5.78;;;15.60;99.90;;;;;;4996619;28;20041;-84
2021/09/05 07:48:32;;;;;;;10.73;7.05;;;15.70;99.90;;;;;;4996163;28;20034;-84
2021/09/05 07:51:02;;;;;;;10.25;5.88;;;15.70;99.90;;;;;;4996386;28;20034;-85
2021/09/05 07:53:35;;;;;;;10.35;6.95;;;15.80;99.90;;;;;;5012146;28;20024;-85
2021/09/05 07:56:03;;;;;;;8.55;6.03;;;15.80;99.90;;;;;;5013528;28;20136;-85
2021/09/05 07:58:36;;;;;;;14.15;7.53;;;15.90;99.90;;;;;;5047692;28;20032;-85
2021/09/05 08:01:05;;;;;;;11.25;6.20;;;16.00;99.90;;;;;;5032164;28;20037;-84
2021/09/05 08:03:37;;;;;;;9.10;5.93;;;16.00;99.90;;;;;;5030639;28;20060;-86
2021/09/05 08:06:12;;;;;;;8.82;5.65;;;16.00;99.90;;;;;;5033944;28;20030;-82
2021/09/05 08:08:44;;;;;;;11.48;6.45;;;16.10;99.90;;;;;;5034387;28;20049;-83
2021/09/05 08:11:12;;;;;;;9.95;5.90;;;16.20;99.90;;;;;;5033690;28;20084;-83
2021/09/05 08:13:38;;;;;;;9.15;5.72;;;16.30;99.90;;;;;;5034288;28;20516;-82
2021/09/05 08:16:05;;;;;;;10.05;5.53;;;16.30;99.90;;;;;;5034982;28;20029;-83
2021/09/05 08:18:38;;;;;;;9.05;5.80;;;16.40;99.90;;;;;;5034947;28;20032;-83
2021/09/05 08:21:07;;;;;;;7.05;4.90;;;16.50;99.90;;;;;;5033827;28;20033;-83
2021/09/05 08:23:34;;;;;;;9.63;5.85;;;16.50;99.90;;;;;;5033826;28;20053;-83
2021/09/05 08:26:05;;;;;;;8.25;5.40;;;16.60;99.90;;;;;;5033439;28;20086;-82
2021/09/05 08:28:36;;;;;;;9.75;5.70;;;16.60;99.90;;;;;;5017567;28;20034;-83
2021/09/05 08:31:02;;;;;;;10.13;5.82;;;16.70;99.90;;;;;;5033539;28;20024;-83
2021/09/05 08:33:29;;;;;;;8.90;5.65;;;16.80;99.90;;;;;;5016546;28;20034;-83
2021/09/05 08:35:56;;;;;;;9.43;5.30;;;16.80;99.90;;;;;;5033198;28;20037;-83
2021/09/05 08:38:23;;;;;;;10.18;5.80;;;16.90;99.90;;;;;;5032969;28;20033;-83
2021/09/05 08:40:52;;;;;;;9.18;5.90;;;17.00;99.90;;;;;;5032966;28;20486;-83
2021/09/05 08:43:21;;;;;;;9.23;6.10;;;17.00;99.90;;;;;;5016625;28;20064;-83
2021/09/05 08:45:53;;;;;;;10.15;6.20;;;17.10;99.90;;;;;;5032697;28;20068;-83
2021/09/05 08:48:24;;;;;;;9.32;5.75;;;17.20;99.90;;;;;;5016475;28;20029;-84
2021/09/05 08:50:55;;;;;;;10.63;5.63;;;17.30;99.90;;;;;;5032532;28;20473;-84
2021/09/05 08:53:25;;;;;;;9.75;6.03;;;17.40;99.90;;;;;;5035267;28;20109;-83
2021/09/05 08:55:52;;;;;;;10.30;6.35;;;17.50;99.90;;;;;;5032500;28;20075;-84
2021/09/05 08:58:20;;;;;;;9.13;5.90;;;17.60;99.90;;;;;;5032412;28;20041;-84
2021/09/05 09:00:47;;;;;;;9.70;6.32;;;17.70;99.90;;;;;;5033308;28;20025;-84
2021/09/05 09:03:25;;;;;;;9.10;5.90;;;17.70;99.90;;;;;;5016266;28;20049;-84
2021/09/05 09:06:00;;;;;;;10.00;6.00;;;17.90;99.90;;;;;;5043587;28;20132;-84
2021/09/05 09:08:26;;;;;;;8.00;5.28;;;17.90;99.90;;;;;;5016490;28;20105;-84
2021/09/05 09:11:03;;;;;;;9.07;5.47;;;18.00;99.90;;;;;;5032799;28;20495;-84
2021/09/05 09:13:41;;;;;;;11.60;5.47;;;18.20;99.90;;;;;;5032895;28;20026;-84
2021/09/05 09:16:14;;;;;;;8.95;5.60;;;18.30;99.90;;;;;;5031214;28;20033;-84
2021/09/05 09:18:44;;;;;;;7.30;4.88;;;18.40;99.90;;;;;;5032161;28;20049;-84
2021/09/05 09:21:15;;;;;;;11.35;6.60;;;18.50;99.90;;;;;;5014178;28;20030;-85
2021/09/05 09:23:45;;;;;;;9.75;6.72;;;18.60;99.90;;;;;;5014185;28;20056;-83
2021/09/05 09:26:19;;;;;;;10.82;6.32;;;18.70;99.90;;;;;;5030243;28;20231;-84
2021/09/05 09:29:00;;;;;;;9.93;5.68;;;18.80;99.90;;;;;;5031972;28;20026;-83
2021/09/05 09:31:31;;;;;;;7.88;5.35;;;18.90;99.90;;;;;;5030301;28;20057;-84
2021/09/05 09:34:03;;;;;;;8.50;5.10;;;19.00;99.90;;;;;;5032246;28;20489;-83
2021/09/05 09:36:31;;;;;;;9.82;5.18;;;19.20;99.90;;;;;;5032724;28;20158;-83
2021/09/05 09:39:06;;;;;;;9.52;5.22;;;19.30;99.90;;;;;;5032695;28;20022;-84
2021/09/05 09:41:41;;;;;;;10.00;5.65;;;20.00;99.90;;;;;;5033821;28;20030;-84
2021/09/05 09:44:13;;;;;;;8.60;5.53;;;21.50;99.90;;;;;;5032315;28;20044;-84
2021/09/05 09:47:09;;;;;;;8.07;5.05;;;23.00;99.90;;;;;;5016903;28;20097;-85
2021/09/05 09:49:49;;;;;;;7.53;5.20;;;24.50;99.90;;;;;;5034094;28;20049;-85
2021/09/05 09:52:26;;;;;;;6.07;4.28;;;25.60;99.90;;;;;;5032036;28;20068;-85
2021/09/05 09:55:05;;;;;;;9.80;5.38;;;26.50;99.90;;;;;;5033660;28;20033;-84
2021/09/05 09:57:32;;;;;;;6.70;4.20;;;27.20;99.90;;;;;;5016525;28;20025;-86
2021/09/05 10:00:06;;;;;;;8.00;4.72;;;27.70;99.40;;;;;;5032765;28;20125;-86
2021/09/05 10:02:53;;;;;;;6.78;4.50;;;28.20;98.40;;;;;;5032506;28;20029;-86
2021/09/05 10:05:26;;;;;;;6.78;4.88;;;28.80;97.50;;;;;;5031046;28;20132;-85
2021/09/05 10:07:56;;;;;;;;;;;29.30;96.10;;;;;;5032410;28;20041;-86
2021/09/05 10:10:33;;;;;;;8.13;5.00;;;29.30;96.00;;;;;;5035363;28;19905;-86
2021/09/05 10:13:06;;;;;;;10.27;5.60;;;29.60;93.60;;;;;;5035623;28;20048;-86
2021/09/05 10:15:47;;;;;;;7.47;4.57;;;29.60;93.00;;;;;;5023419;28;20044;-86
2021/09/05 10:18:23;;;;;;;7.28;4.97;;;29.80;92.70;;;;;;5016189;28;20021;-87
2021/09/05 10:20:57;;;;;;;8.05;4.80;;;30.20;92.20;;;;;;5017420;28;20051;-87
2021/09/05 10:23:34;;;;;;;6.93;4.80;;;30.60;91.40;;;;;;5000605;28;20374;-86
2021/09/05 10:26:12;;;;;;;6.50;4.93;;;31.00;90.40;;;;;;5016804;28;20490;-84
2021/09/05 10:28:48;;;;;;;8.27;4.68;;;31.40;88.50;;;;;;5015428;28;20030;-86
2021/09/05 10:31:26;;;;;;;6.93;4.70;;;31.40;87.50;;;;;;4999548;28;20128;-86
2021/09/05 10:33:54;;;;;;;7.07;4.90;;;31.80;85.90;;;;;;5016227;28;20034;-86
2021/09/05 10:36:25;;;;;;;7.93;4.53;;;31.80;83.80;;;;;;5016822;28;20034;-85
2021/09/05 10:39:14;;;;;;;6.22;4.80;;;31.90;83.00;;;;;;5019711;28;20482;-85
2021/09/05 10:41:53;;;;;;;7.15;4.55;;;32.20;82.30;;;;;;5014695;28;20065;-85
2021/09/05 10:44:21;;;;;;;7.78;4.97;;;32.30;80.60;;;;;;5017006;28;20393;-86
2021/09/05 10:46:57;;;;;;;6.60;4.60;;;32.20;79.80;;;;;;5016676;28;20089;-85
2021/09/05 10:49:53;;;;;;;7.03;4.60;;;32.30;79.20;;;;;;5013229;28;20045;-85
2021/09/05 10:52:48;;;;;;;7.28;4.43;;;32.50;78.70;;;;;;5011819;28;20045;-85
2021/09/05 10:55:49;;;;;;;6.85;4.75;;;32.80;77.40;;;;;;5021976;28;20402;-85
2021/09/05 10:58:16;;;;;;;7.78;5.05;;;32.90;74.90;;;;;;5015004;28;20041;-85
2021/09/05 11:01:20;;;;;;;7.13;4.63;;;32.90;74.80;;;;;;5013529;28;20092;-86
2021/09/05 11:04:15;;;;;;;6.68;4.57;;;33.10;74.10;;;;;;5013018;28;20030;-86
2021/09/05 11:07:06;;;;;;;7.65;4.57;;;33.30;73.30;;;;;;5013214;28;20049;-85
2021/09/05 11:09:52;;;;;;;7.47;4.40;;;33.50;72.30;;;;;;5013576;28;20041;-86
2021/09/05 11:12:40;;;;;;;6.68;4.28;;;33.50;71.30;;;;;;4996944;28;20030;-86
2021/09/05 11:15:19;;;;;;;8.13;4.38;;;33.70;70.80;;;;;;5026494;28;20040;-85
2021/09/05 11:17:57;;;;;;;6.85;4.38;;;33.70;69.20;;;;;;5033854;28;20112;-85
2021/09/05 11:20:26;;;;;;;7.30;4.65;;;33.80;68.30;;;;;;5033254;28;20044;-84
2021/09/05 11:22:56;;;;;;;6.88;4.90;;;33.80;67.60;;;;;;5018419;28;20033;-84
2021/09/05 11:25:26;;;;;;;6.03;4.38;;;33.80;66.70;;;;;;5034459;28;20351;-84
2021/09/05 11:28:00;;;;;;;5.95;4.78;;;33.80;66.40;;;;;;5018536;28;20033;-84
2021/09/05 11:30:31;;;;;;;6.47;4.78;;;33.80;65.70;;;;;;5035156;28;20017;-85
2021/09/05 11:33:05;;;;;;;6.40;4.38;;;33.80;65.30;;;;;;5034776;28;20024;-85
2021/09/05 11:35:36;;;;;;;6.00;4.35;;;33.90;64.80;;;;;;5034439;28;20037;-85
2021/09/05 11:38:08;;;;;;;5.47;4.07;;;34.10;64.50;;;;;;5034569;28;20033;-85
2021/09/05 11:40:49;;;;;;;8.68;5.00;;;34.30;63.50;;;;;;5034731;28;20456;-85
2021/09/05 11:43:43;;;;;;;7.90;4.43;;;34.40;63.40;;;;;;5031413;28;20045;-86
2021/09/05 11:46:36;;;;;;;5.55;4.10;;;34.50;63.20;;;;;;5032930;28;20029;-85
2021/09/05 11:49:08;;;;;;;5.75;4.43;;;34.60;63.20;;;;;;5003927;28;20042;-85
2021/09/05 11:51:34;;;;;;;7.35;4.35;;;34.90;62.70;;;;;;4996425;28;20100;-86
2021/09/05 11:54:07;;;;;;;6.15;4.47;;;34.90;61.60;;;;;;5012702;28;20466;-85
2021/09/05 11:56:37;;;;;;;5.20;4.03;;;34.90;61.20;;;;;;5012999;28;20033;-85
2021/09/05 11:59:10;;;;;;;5.80;4.30;;;35.00;61.30;;;;;;4995548;28;20326;-86
2021/09/05 12:01:49;;;;;;;6.63;4.65;;;35.20;60.80;;;;;;5016350;28;20042;-85
2021/09/05 12:04:16;;;;;;;5.47;4.38;;;35.20;60.20;;;;;;5015096;28;20034;-86
2021/09/05 12:06:43;;;;;;;7.07;4.93;;;35.20;60.10;;;;;;4998119;28;20054;-86
2021/09/05 12:09:24;;;;;;;5.70;4.63;;;35.30;59.80;;;;;;4997823;28;20053;-86
2021/09/05 12:12:04;;;;;;;5.53;4.50;;;35.40;59.20;;;;;;5013833;28;20409;-85
2021/09/05 12:14:32;;;;;;;6.00;4.50;;;35.60;59.10;;;;;;4996857;28;20050;-86
2021/09/05 12:17:22;;;;;;;6.32;4.38;;;35.70;58.90;;;;;;4997440;28;20474;-86
2021/09/05 12:20:01;;;;;;;8.20;5.38;;;36.00;58.70;;;;;;5008083;28;20048;-86
2021/09/05 12:22:43;;;;;;;6.32;4.53;;;35.90;57.90;;;;;;5016498;28;20021;-85
2021/09/05 12:25:21;;;;;;;5.53;4.28;;;35.90;57.60;;;;;;5033535;28;20045;-85
2021/09/05 12:28:02;;;;;;;6.40;4.88;;;35.80;57.70;;;;;;5033841;28;20057;-85
2021/09/05 12:30:51;;;;;;;6.13;4.60;;;35.90;57.80;;;;;;5033433;28;20040;-86
2021/09/05 12:33:38;;;;;;;5.82;4.97;;;36.00;57.90;;;;;;5032483;28;20032;-86
2021/09/05 12:36:20;;;;;;;6.68;5.15;;;36.10;57.60;;;;;;5033125;28;20025;-86
2021/09/05 12:38:55;;;;;;;6.30;4.68;;;36.10;57.50;;;;;;5034127;28;20040;-86
2021/09/05 12:41:28;;;;;;;6.75;4.80;;;36.10;57.40;;;;;;5032630;28;20052;-87
2021/09/05 12:44:05;;;;;;;5.70;4.30;;;36.20;57.20;;;;;;5045457;28;20029;-86
2021/09/05 12:46:43;;;;;;;5.72;4.47;;;36.30;57.20;;;;;;5034507;28;20025;-86
2021/09/05 12:49:24;;;;;;;5.38;4.68;;;36.30;56.90;;;;;;5032730;28;20037;-86
2021/09/05 12:52:00;;;;;;;5.68;4.57;;;36.30;56.70;;;;;;5048884;28;20030;-87
2021/09/05 12:54:39;;;;;;;7.78;5.35;;;36.20;56.70;;;;;;5033184;28;20033;-86
2021/09/05 12:57:06;;;;;;;5.63;4.78;;;36.30;56.70;;;;;;5036503;28;20148;-86
2021/09/05 12:59:32;;;;;;;5.57;4.47;;;36.30;56.90;;;;;;5018880;28;20124;-86
2021/09/05 13:02:04;;;;;;;7.50;5.80;;;36.70;56.60;;;;;;5024492;28;20140;-86
2021/09/05 13:04:36;;;;;;;6.00;4.78;;;36.80;56.40;;;;;;5034815;28;20029;-87
2021/09/05 13:07:04;;;;;;;6.03;4.55;;;36.70;56.30;;;;;;5014665;28;20504;-86